sensor_id;sensor_type;location;lat;lon;timestamp;P1;durP1;ratioP1;P2;durP2;ratioP2
24090;SDS011;12272;52.426;17.100;2023-07-13T00:00:02;1.80;;;1.40;;
24090;SDS011;12272;52.426;17.100;2023-07-13T00:05:15;3.72;;;1.35;;
24090;SDS011;12272;52.426;17.100;2023-07-13T00:10:18;1.80;;;1.52;;
24090;SDS011;12272;52.426;17.100;2023-07-13T00:15:23;2.65;;;1.38;;
24090;SDS011;12272;52.426;17.100;2023-07-13T00:20:27;1.58;;;1.25;;
24090;SDS011;12272;52.426;17.100;2023-07-13T00:25:29;1.77;;;1.10;;
24090;SDS011;12272;52.426;17.100;2023-07-13T00:30:32;3.00;;;1.50;;
24090;SDS011;12272;52.426;17.100;2023-07-13T00:35:35;2.85;;;1.75;;
24090;SDS011;12272;52.426;17.100;2023-07-13T00:40:37;4.63;;;1.77;;
24090;SDS011;12272;52.426;17.100;2023-07-13T00:50:47;2.10;;;1.67;;
24090;SDS011;12272;52.426;17.100;2023-07-13T00:55:53;4.22;;;1.38;;
24090;SDS011;12272;52.426;17.100;2023-07-13T01:00:58;4.75;;;1.90;;
24090;SDS011;12272;52.426;17.100;2023-07-13T01:06:01;1.70;;;1.60;;
24090;SDS011;12272;52.426;17.100;2023-07-13T01:11:04;2.47;;;1.55;;
24090;SDS011;12272;52.426;17.100;2023-07-13T01:16:12;2.90;;;1.65;;
24090;SDS011;12272;52.426;17.100;2023-07-13T01:21:20;1.13;;;0.93;;
24090;SDS011;12272;52.426;17.100;2023-07-13T01:26:23;2.10;;;1.45;;
24090;SDS011;12272;52.426;17.100;2023-07-13T01:31:25;2.67;;;1.40;;
24090;SDS011;12272;52.426;17.100;2023-07-13T01:36:28;2.92;;;1.77;;
24090;SDS011;12272;52.426;17.100;2023-07-13T01:41:31;4.82;;;1.90;;
24090;SDS011;12272;52.426;17.100;2023-07-13T01:46:33;6.63;;;1.83;;
24090;SDS011;12272;52.426;17.100;2023-07-13T01:51:36;2.95;;;1.15;;
24090;SDS011;12272;52.426;17.100;2023-07-13T01:56:39;4.80;;;1.98;;
24090;SDS011;12272;52.426;17.100;2023-07-13T02:01:43;1.23;;;0.93;;
24090;SDS011;12272;52.426;17.100;2023-07-13T02:06:46;2.42;;;1.20;;
24090;SDS011;12272;52.426;17.100;2023-07-13T02:11:50;4.10;;;1.30;;
24090;SDS011;12272;52.426;17.100;2023-07-13T02:16:53;1.08;;;0.98;;
24090;SDS011;12272;52.426;17.100;2023-07-13T02:21:56;0.60;;;0.60;;
24090;SDS011;12272;52.426;17.100;2023-07-13T02:26:58;1.30;;;1.02;;
24090;SDS011;12272;52.426;17.100;2023-07-13T02:32:01;2.97;;;1.40;;
24090;SDS011;12272;52.426;17.100;2023-07-13T02:37:04;2.47;;;1.58;;
24090;SDS011;12272;52.426;17.100;2023-07-13T02:42:06;3.70;;;1.30;;
24090;SDS011;12272;52.426;17.100;2023-07-13T02:47:09;2.13;;;1.63;;
24090;SDS011;12272;52.426;17.100;2023-07-13T02:52:12;1.52;;;1.20;;
24090;SDS011;12272;52.426;17.100;2023-07-13T02:57:14;5.68;;;1.42;;
24090;SDS011;12272;52.426;17.100;2023-07-13T03:02:17;2.05;;;1.20;;
24090;SDS011;12272;52.426;17.100;2023-07-13T03:07:20;2.72;;;1.63;;
24090;SDS011;12272;52.426;17.100;2023-07-13T03:12:25;4.05;;;1.83;;
24090;SDS011;12272;52.426;17.100;2023-07-13T03:17:28;1.80;;;1.50;;
24090;SDS011;12272;52.426;17.100;2023-07-13T03:22:31;1.70;;;1.20;;
24090;SDS011;12272;52.426;17.100;2023-07-13T03:27:35;2.75;;;1.80;;
24090;SDS011;12272;52.426;17.100;2023-07-13T03:32:39;2.00;;;1.70;;
24090;SDS011;12272;52.426;17.100;2023-07-13T03:37:42;2.13;;;2.00;;
24090;SDS011;12272;52.426;17.100;2023-07-13T03:42:50;3.47;;;2.40;;
24090;SDS011;12272;52.426;17.100;2023-07-13T03:47:53;3.00;;;2.67;;
24090;SDS011;12272;52.426;17.100;2023-07-13T03:52:57;3.30;;;2.25;;
24090;SDS011;12272;52.426;17.100;2023-07-13T03:58:06;3.33;;;2.47;;
24090;SDS011;12272;52.426;17.100;2023-07-13T04:03:40;3.13;;;2.88;;
24090;SDS011;12272;52.426;17.100;2023-07-13T04:08:43;2.67;;;2.05;;
24090;SDS011;12272;52.426;17.100;2023-07-13T04:13:46;12.43;;;3.17;;
24090;SDS011;12272;52.426;17.100;2023-07-13T04:18:49;1.48;;;1.33;;
24090;SDS011;12272;52.426;17.100;2023-07-13T04:23:57;2.03;;;1.75;;
24090;SDS011;12272;52.426;17.100;2023-07-13T04:29:00;4.20;;;3.38;;
24090;SDS011;12272;52.426;17.100;2023-07-13T04:34:02;3.88;;;3.38;;
24090;SDS011;12272;52.426;17.100;2023-07-13T04:39:05;3.90;;;3.30;;
24090;SDS011;12272;52.426;17.100;2023-07-13T04:44:08;3.10;;;2.55;;
24090;SDS011;12272;52.426;17.100;2023-07-13T04:49:11;3.60;;;2.90;;
24090;SDS011;12272;52.426;17.100;2023-07-13T04:54:23;2.47;;;2.28;;
24090;SDS011;12272;52.426;17.100;2023-07-13T04:59:26;3.38;;;3.08;;
24090;SDS011;12272;52.426;17.100;2023-07-13T05:04:29;3.53;;;2.72;;
24090;SDS011;12272;52.426;17.100;2023-07-13T05:09:31;3.92;;;2.88;;
24090;SDS011;12272;52.426;17.100;2023-07-13T05:14:34;3.83;;;3.20;;
24090;SDS011;12272;52.426;17.100;2023-07-13T05:19:37;3.92;;;2.88;;
24090;SDS011;12272;52.426;17.100;2023-07-13T05:24:39;3.90;;;2.90;;
24090;SDS011;12272;52.426;17.100;2023-07-13T05:29:42;3.30;;;2.95;;
24090;SDS011;12272;52.426;17.100;2023-07-13T05:34:45;5.70;;;4.68;;
24090;SDS011;12272;52.426;17.100;2023-07-13T05:39:47;4.40;;;3.47;;
24090;SDS011;12272;52.426;17.100;2023-07-13T05:44:50;4.80;;;3.80;;
24090;SDS011;12272;52.426;17.100;2023-07-13T05:49:53;5.38;;;4.68;;
24090;SDS011;12272;52.426;17.100;2023-07-13T05:54:56;4.57;;;3.70;;
24090;SDS011;12272;52.426;17.100;2023-07-13T05:59:58;6.43;;;3.13;;
24090;SDS011;12272;52.426;17.100;2023-07-13T06:05:01;4.70;;;3.83;;
24090;SDS011;12272;52.426;17.100;2023-07-13T06:10:04;9.55;;;5.07;;
24090;SDS011;12272;52.426;17.100;2023-07-13T06:15:07;4.00;;;3.65;;
24090;SDS011;12272;52.426;17.100;2023-07-13T06:20:10;8.20;;;4.30;;
24090;SDS011;12272;52.426;17.100;2023-07-13T06:25:13;3.42;;;2.83;;
24090;SDS011;12272;52.426;17.100;2023-07-13T06:30:18;6.65;;;2.90;;
24090;SDS011;12272;52.426;17.100;2023-07-13T06:35:21;4.63;;;3.58;;
24090;SDS011;12272;52.426;17.100;2023-07-13T06:40:32;2.80;;;2.60;;
24090;SDS011;12272;52.426;17.100;2023-07-13T06:45:45;7.60;;;5.35;;
24090;SDS011;12272;52.426;17.100;2023-07-13T06:50:50;4.03;;;3.17;;
24090;SDS011;12272;52.426;17.100;2023-07-13T06:55:53;1.38;;;1.17;;
24090;SDS011;12272;52.426;17.100;2023-07-13T07:00:56;3.63;;;2.10;;
24090;SDS011;12272;52.426;17.100;2023-07-13T07:06:06;3.17;;;2.15;;
24090;SDS011;12272;52.426;17.100;2023-07-13T07:11:20;2.42;;;1.80;;
24090;SDS011;12272;52.426;17.100;2023-07-13T07:16:25;4.63;;;3.63;;
24090;SDS011;12272;52.426;17.100;2023-07-13T07:21:28;8.65;;;6.55;;
24090;SDS011;12272;52.426;17.100;2023-07-13T07:26:31;7.10;;;4.68;;
24090;SDS011;12272;52.426;17.100;2023-07-13T07:31:45;5.70;;;5.07;;
24090;SDS011;12272;52.426;17.100;2023-07-13T07:36:51;8.45;;;6.13;;
24090;SDS011;12272;52.426;17.100;2023-07-13T07:41:57;4.45;;;4.00;;
24090;SDS011;12272;52.426;17.100;2023-07-13T07:46:59;4.80;;;3.97;;
24090;SDS011;12272;52.426;17.100;2023-07-13T07:52:03;4.90;;;3.28;;
24090;SDS011;12272;52.426;17.100;2023-07-13T07:57:06;3.90;;;3.50;;
24090;SDS011;12272;52.426;17.100;2023-07-13T08:02:12;3.10;;;2.30;;
24090;SDS011;12272;52.426;17.100;2023-07-13T08:07:40;6.32;;;3.22;;
24090;SDS011;12272;52.426;17.100;2023-07-13T08:12:42;3.58;;;1.80;;
24090;SDS011;12272;52.426;17.100;2023-07-13T08:18:05;4.03;;;2.35;;
24090;SDS011;12272;52.426;17.100;2023-07-13T08:23:10;3.95;;;2.95;;
24090;SDS011;12272;52.426;17.100;2023-07-13T08:28:13;4.13;;;3.30;;
24090;SDS011;12272;52.426;17.100;2023-07-13T08:33:16;3.58;;;2.45;;
24090;SDS011;12272;52.426;17.100;2023-07-13T08:38:22;1.95;;;1.75;;
24090;SDS011;12272;52.426;17.100;2023-07-13T08:43:26;6.22;;;3.08;;
24090;SDS011;12272;52.426;17.100;2023-07-13T08:48:38;3.90;;;2.80;;
24090;SDS011;12272;52.426;17.100;2023-07-13T08:53:54;4.72;;;2.92;;
24090;SDS011;12272;52.426;17.100;2023-07-13T08:59:02;2.85;;;2.42;;
24090;SDS011;12272;52.426;17.100;2023-07-13T09:04:19;2.97;;;2.40;;
24090;SDS011;12272;52.426;17.100;2023-07-13T09:14:42;3.35;;;2.88;;
24090;SDS011;12272;52.426;17.100;2023-07-13T09:35:48;31.98;;;8.77;;
24090;SDS011;12272;52.426;17.100;2023-07-13T09:41:15;12.45;;;3.55;;
24090;SDS011;12272;52.426;17.100;2023-07-13T09:46:23;3.95;;;2.60;;
24090;SDS011;12272;52.426;17.100;2023-07-13T09:51:26;3.33;;;2.75;;
24090;SDS011;12272;52.426;17.100;2023-07-13T09:56:29;1.20;;;1.10;;
24090;SDS011;12272;52.426;17.100;2023-07-13T10:01:36;1.67;;;1.58;;
24090;SDS011;12272;52.426;17.100;2023-07-13T10:06:40;4.63;;;3.70;;
24090;SDS011;12272;52.426;17.100;2023-07-13T10:11:45;2.20;;;1.77;;
24090;SDS011;12272;52.426;17.100;2023-07-13T10:16:48;5.13;;;3.47;;
24090;SDS011;12272;52.426;17.100;2023-07-13T10:22:12;5.70;;;3.10;;
24090;SDS011;12272;52.426;17.100;2023-07-13T10:27:34;4.57;;;2.15;;
24090;SDS011;12272;52.426;17.100;2023-07-13T10:32:38;1.27;;;1.15;;
24090;SDS011;12272;52.426;17.100;2023-07-13T10:37:47;3.67;;;2.63;;
24090;SDS011;12272;52.426;17.100;2023-07-13T10:42:56;4.38;;;2.25;;
24090;SDS011;12272;52.426;17.100;2023-07-13T10:48:03;2.83;;;2.38;;
24090;SDS011;12272;52.426;17.100;2023-07-13T11:00:16;1.33;;;1.23;;
24090;SDS011;12272;52.426;17.100;2023-07-13T11:05:26;1.00;;;0.98;;
24090;SDS011;12272;52.426;17.100;2023-07-13T11:10:51;0.82;;;0.82;;
24090;SDS011;12272;52.426;17.100;2023-07-13T11:15:58;4.93;;;3.05;;
24090;SDS011;12272;52.426;17.100;2023-07-13T11:21:12;1.35;;;1.23;;
24090;SDS011;12272;52.426;17.100;2023-07-13T11:26:40;1.48;;;1.35;;
24090;SDS011;12272;52.426;17.100;2023-07-13T11:31:53;2.75;;;2.10;;
24090;SDS011;12272;52.426;17.100;2023-07-13T11:36:58;2.53;;;1.63;;
24090;SDS011;12272;52.426;17.100;2023-07-13T11:42:05;1.80;;;1.30;;
24090;SDS011;12272;52.426;17.100;2023-07-13T11:47:17;2.80;;;1.92;;
24090;SDS011;12272;52.426;17.100;2023-07-13T11:52:23;3.00;;;2.65;;
24090;SDS011;12272;52.426;17.100;2023-07-13T11:57:38;2.53;;;1.48;;
24090;SDS011;12272;52.426;17.100;2023-07-13T12:02:51;1.40;;;1.30;;
24090;SDS011;12272;52.426;17.100;2023-07-13T12:07:55;1.88;;;1.40;;
24090;SDS011;12272;52.426;17.100;2023-07-13T12:13:02;3.30;;;1.27;;
24090;SDS011;12272;52.426;17.100;2023-07-13T12:18:11;1.65;;;1.55;;
24090;SDS011;12272;52.426;17.100;2023-07-13T12:28:35;1.92;;;1.52;;
24090;SDS011;12272;52.426;17.100;2023-07-13T12:33:39;5.68;;;2.17;;
24090;SDS011;12272;52.426;17.100;2023-07-13T12:38:44;5.50;;;2.13;;
24090;SDS011;12272;52.426;17.100;2023-07-13T12:43:48;1.98;;;1.50;;
24090;SDS011;12272;52.426;17.100;2023-07-13T12:48:51;4.55;;;2.00;;
24090;SDS011;12272;52.426;17.100;2023-07-13T12:54:13;1.70;;;1.48;;
24090;SDS011;12272;52.426;17.100;2023-07-13T12:59:22;1.35;;;1.13;;
24090;SDS011;12272;52.426;17.100;2023-07-13T13:04:28;1.35;;;1.20;;
24090;SDS011;12272;52.426;17.100;2023-07-13T13:09:37;1.75;;;1.63;;
24090;SDS011;12272;52.426;17.100;2023-07-13T13:14:44;2.22;;;1.15;;
24090;SDS011;12272;52.426;17.100;2023-07-13T13:25:15;1.63;;;1.52;;
24090;SDS011;12272;52.426;17.100;2023-07-13T13:30:18;2.50;;;1.20;;
24090;SDS011;12272;52.426;17.100;2023-07-13T13:35:20;2.45;;;1.50;;
24090;SDS011;12272;52.426;17.100;2023-07-13T13:40:24;1.77;;;1.10;;
24090;SDS011;12272;52.426;17.100;2023-07-13T13:45:28;4.38;;;1.67;;
24090;SDS011;12272;52.426;17.100;2023-07-13T13:50:31;1.38;;;1.27;;
24090;SDS011;12272;52.426;17.100;2023-07-13T13:55:34;2.28;;;1.50;;
24090;SDS011;12272;52.426;17.100;2023-07-13T14:00:37;1.63;;;1.35;;
24090;SDS011;12272;52.426;17.100;2023-07-13T14:05:43;1.73;;;1.58;;
24090;SDS011;12272;52.426;17.100;2023-07-13T14:10:50;1.88;;;1.63;;
24090;SDS011;12272;52.426;17.100;2023-07-13T14:15:56;1.77;;;1.45;;
24090;SDS011;12272;52.426;17.100;2023-07-13T14:20:58;2.33;;;1.60;;
24090;SDS011;12272;52.426;17.100;2023-07-13T14:26:01;2.17;;;1.40;;
24090;SDS011;12272;52.426;17.100;2023-07-13T14:31:04;1.80;;;1.70;;
24090;SDS011;12272;52.426;17.100;2023-07-13T14:41:32;3.05;;;1.70;;
24090;SDS011;12272;52.426;17.100;2023-07-13T14:46:35;1.55;;;1.45;;
24090;SDS011;12272;52.426;17.100;2023-07-13T14:51:38;2.80;;;1.50;;
24090;SDS011;12272;52.426;17.100;2023-07-13T14:56:40;2.10;;;1.35;;
24090;SDS011;12272;52.426;17.100;2023-07-13T15:01:43;2.65;;;1.67;;
24090;SDS011;12272;52.426;17.100;2023-07-13T15:06:59;1.52;;;1.40;;
24090;SDS011;12272;52.426;17.100;2023-07-13T15:12:04;1.60;;;1.50;;
24090;SDS011;12272;52.426;17.100;2023-07-13T15:17:17;1.65;;;1.20;;
24090;SDS011;12272;52.426;17.100;2023-07-13T15:22:33;2.10;;;1.90;;
24090;SDS011;12272;52.426;17.100;2023-07-13T15:27:37;2.15;;;1.70;;
24090;SDS011;12272;52.426;17.100;2023-07-13T15:32:43;1.70;;;1.60;;
24090;SDS011;12272;52.426;17.100;2023-07-13T15:37:47;5.15;;;1.63;;
24090;SDS011;12272;52.426;17.100;2023-07-13T15:42:50;6.20;;;1.45;;
24090;SDS011;12272;52.426;17.100;2023-07-13T15:47:53;2.08;;;1.15;;
24090;SDS011;12272;52.426;17.100;2023-07-13T15:52:56;4.28;;;1.40;;
24090;SDS011;12272;52.426;17.100;2023-07-13T15:58:00;3.60;;;1.23;;
24090;SDS011;12272;52.426;17.100;2023-07-13T16:03:03;2.63;;;1.30;;
24090;SDS011;12272;52.426;17.100;2023-07-13T16:08:09;2.70;;;1.52;;
24090;SDS011;12272;52.426;17.100;2023-07-13T16:13:29;1.65;;;1.42;;
24090;SDS011;12272;52.426;17.100;2023-07-13T16:18:32;4.28;;;1.38;;
24090;SDS011;12272;52.426;17.100;2023-07-13T16:23:35;1.25;;;1.15;;
24090;SDS011;12272;52.426;17.100;2023-07-13T16:28:55;2.63;;;1.20;;
24090;SDS011;12272;52.426;17.100;2023-07-13T16:34:02;2.53;;;1.15;;
24090;SDS011;12272;52.426;17.100;2023-07-13T16:39:12;2.13;;;1.15;;
24090;SDS011;12272;52.426;17.100;2023-07-13T16:44:17;3.40;;;1.35;;
24090;SDS011;12272;52.426;17.100;2023-07-13T16:49:23;2.00;;;1.23;;
24090;SDS011;12272;52.426;17.100;2023-07-13T16:54:32;2.63;;;1.02;;
24090;SDS011;12272;52.426;17.100;2023-07-13T16:59:37;4.07;;;1.95;;
24090;SDS011;12272;52.426;17.100;2023-07-13T17:04:39;4.22;;;1.52;;
24090;SDS011;12272;52.426;17.100;2023-07-13T17:09:43;3.38;;;1.85;;
24090;SDS011;12272;52.426;17.100;2023-07-13T17:14:47;2.20;;;1.77;;
24090;SDS011;12272;52.426;17.100;2023-07-13T17:19:50;3.10;;;1.23;;
24090;SDS011;12272;52.426;17.100;2023-07-13T17:24:54;3.88;;;1.48;;
24090;SDS011;12272;52.426;17.100;2023-07-13T17:30:00;2.72;;;1.63;;
24090;SDS011;12272;52.426;17.100;2023-07-13T17:35:17;3.63;;;1.42;;
24090;SDS011;12272;52.426;17.100;2023-07-13T17:40:26;3.35;;;1.50;;
24090;SDS011;12272;52.426;17.100;2023-07-13T17:45:30;3.90;;;1.48;;
24090;SDS011;12272;52.426;17.100;2023-07-13T17:50:34;2.13;;;1.15;;
24090;SDS011;12272;52.426;17.100;2023-07-13T17:55:37;3.35;;;1.25;;
24090;SDS011;12272;52.426;17.100;2023-07-13T18:00:40;3.60;;;1.20;;
24090;SDS011;12272;52.426;17.100;2023-07-13T18:05:46;3.33;;;2.08;;
24090;SDS011;12272;52.426;17.100;2023-07-13T18:10:49;2.25;;;1.50;;
24090;SDS011;12272;52.426;17.100;2023-07-13T18:15:51;1.52;;;1.40;;
24090;SDS011;12272;52.426;17.100;2023-07-13T18:20:55;3.47;;;1.40;;
24090;SDS011;12272;52.426;17.100;2023-07-13T18:25:58;1.73;;;1.40;;
24090;SDS011;12272;52.426;17.100;2023-07-13T18:31:00;2.38;;;1.85;;
24090;SDS011;12272;52.426;17.100;2023-07-13T18:36:04;2.38;;;1.52;;
24090;SDS011;12272;52.426;17.100;2023-07-13T18:41:09;2.25;;;1.38;;
24090;SDS011;12272;52.426;17.100;2023-07-13T18:46:21;2.03;;;1.30;;
24090;SDS011;12272;52.426;17.100;2023-07-13T18:51:25;1.83;;;1.30;;
24090;SDS011;12272;52.426;17.100;2023-07-13T18:56:28;2.00;;;1.48;;
24090;SDS011;12272;52.426;17.100;2023-07-13T19:01:34;4.15;;;1.75;;
24090;SDS011;12272;52.426;17.100;2023-07-13T19:06:37;3.40;;;1.60;;
24090;SDS011;12272;52.426;17.100;2023-07-13T19:11:40;2.40;;;1.40;;
24090;SDS011;12272;52.426;17.100;2023-07-13T19:16:43;2.38;;;1.75;;
24090;SDS011;12272;52.426;17.100;2023-07-13T19:21:46;6.43;;;2.00;;
24090;SDS011;12272;52.426;17.100;2023-07-13T19:26:51;2.15;;;1.92;;
24090;SDS011;12272;52.426;17.100;2023-07-13T19:31:54;2.88;;;2.15;;
24090;SDS011;12272;52.426;17.100;2023-07-13T19:37:01;1.95;;;1.70;;
24090;SDS011;12272;52.426;17.100;2023-07-13T19:42:13;5.93;;;2.50;;
24090;SDS011;12272;52.426;17.100;2023-07-13T19:47:19;2.05;;;1.88;;
24090;SDS011;12272;52.426;17.100;2023-07-13T19:52:23;5.28;;;2.20;;
24090;SDS011;12272;52.426;17.100;2023-07-13T19:57:30;2.95;;;1.98;;
24090;SDS011;12272;52.426;17.100;2023-07-13T20:02:32;2.25;;;1.60;;
24090;SDS011;12272;52.426;17.100;2023-07-13T20:07:35;2.97;;;1.88;;
24090;SDS011;12272;52.426;17.100;2023-07-13T20:12:38;3.40;;;1.75;;
24090;SDS011;12272;52.426;17.100;2023-07-13T20:17:41;4.07;;;1.55;;
24090;SDS011;12272;52.426;17.100;2023-07-13T20:22:46;3.55;;;2.75;;
24090;SDS011;12272;52.426;17.100;2023-07-13T20:27:49;2.83;;;2.10;;
24090;SDS011;12272;52.426;17.100;2023-07-13T20:32:53;3.13;;;1.92;;
24090;SDS011;12272;52.426;17.100;2023-07-13T20:37:58;2.55;;;1.92;;
24090;SDS011;12272;52.426;17.100;2023-07-13T20:43:02;2.30;;;1.67;;
24090;SDS011;12272;52.426;17.100;2023-07-13T20:48:25;1.40;;;1.20;;
24090;SDS011;12272;52.426;17.100;2023-07-13T20:53:30;2.03;;;1.80;;
24090;SDS011;12272;52.426;17.100;2023-07-13T20:58:32;2.22;;;2.05;;
24090;SDS011;12272;52.426;17.100;2023-07-13T21:03:35;3.22;;;1.58;;
24090;SDS011;12272;52.426;17.100;2023-07-13T21:08:37;2.63;;;1.80;;
24090;SDS011;12272;52.426;17.100;2023-07-13T21:13:40;5.18;;;1.90;;
24090;SDS011;12272;52.426;17.100;2023-07-13T21:18:42;2.40;;;2.13;;
24090;SDS011;12272;52.426;17.100;2023-07-13T21:23:45;1.30;;;1.20;;
24090;SDS011;12272;52.426;17.100;2023-07-13T21:28:51;0.90;;;0.90;;
24090;SDS011;12272;52.426;17.100;2023-07-13T21:33:55;1.50;;;1.30;;
24090;SDS011;12272;52.426;17.100;2023-07-13T21:39:01;1.95;;;1.75;;
24090;SDS011;12272;52.426;17.100;2023-07-13T21:49:31;1.73;;;1.58;;
24090;SDS011;12272;52.426;17.100;2023-07-13T21:54:34;3.08;;;1.77;;
24090;SDS011;12272;52.426;17.100;2023-07-13T21:59:36;1.88;;;1.60;;
24090;SDS011;12272;52.426;17.100;2023-07-13T22:04:39;2.00;;;1.80;;
24090;SDS011;12272;52.426;17.100;2023-07-13T22:09:42;2.22;;;2.03;;
24090;SDS011;12272;52.426;17.100;2023-07-13T22:14:44;1.50;;;1.20;;
24090;SDS011;12272;52.426;17.100;2023-07-13T22:19:47;3.50;;;2.70;;
24090;SDS011;12272;52.426;17.100;2023-07-13T22:24:53;5.95;;;1.98;;
24090;SDS011;12272;52.426;17.100;2023-07-13T22:29:56;2.88;;;1.67;;
24090;SDS011;12272;52.426;17.100;2023-07-13T22:34:59;3.38;;;1.90;;
24090;SDS011;12272;52.426;17.100;2023-07-13T22:40:08;2.78;;;1.88;;
24090;SDS011;12272;52.426;17.100;2023-07-13T22:45:18;2.88;;;1.60;;
24090;SDS011;12272;52.426;17.100;2023-07-13T22:50:20;2.25;;;1.60;;
24090;SDS011;12272;52.426;17.100;2023-07-13T22:55:23;2.15;;;1.50;;
24090;SDS011;12272;52.426;17.100;2023-07-13T23:00:27;4.30;;;2.30;;
24090;SDS011;12272;52.426;17.100;2023-07-13T23:05:29;4.72;;;2.15;;
24090;SDS011;12272;52.426;17.100;2023-07-13T23:10:32;3.28;;;1.88;;
24090;SDS011;12272;52.426;17.100;2023-07-13T23:15:35;2.17;;;1.70;;
24090;SDS011;12272;52.426;17.100;2023-07-13T23:20:37;1.30;;;1.20;;
24090;SDS011;12272;52.426;17.100;2023-07-13T23:25:40;2.95;;;1.45;;
24090;SDS011;12272;52.426;17.100;2023-07-13T23:30:45;1.20;;;1.00;;
24090;SDS011;12272;52.426;17.100;2023-07-13T23:35:49;3.00;;;2.22;;
24090;SDS011;12272;52.426;17.100;2023-07-13T23:40:56;4.03;;;1.80;;
24090;SDS011;12272;52.426;17.100;2023-07-13T23:45:59;4.15;;;2.20;;
24090;SDS011;12272;52.426;17.100;2023-07-13T23:51:02;3.70;;;1.58;;
24090;SDS011;12272;52.426;17.100;2023-07-13T23:56:11;2.55;;;1.70;;
